sensor_id;sensor_type;location;lat;lon;timestamp;P1;durP1;ratioP1;P2;durP2;ratioP2
13685;SDS011;6915;48.296;8.874;2023-03-23T00:01:12;2.57;;;2.37;;
13685;SDS011;6915;48.296;8.874;2023-03-23T00:03:44;4.90;;;2.90;;
13685;SDS011;6915;48.296;8.874;2023-03-23T00:06:14;3.53;;;2.60;;
13685;SDS011;6915;48.296;8.874;2023-03-23T00:08:44;3.23;;;2.70;;
13685;SDS011;6915;48.296;8.874;2023-03-23T00:11:16;5.10;;;2.63;;
13685;SDS011;6915;48.296;8.874;2023-03-23T00:13:47;3.37;;;2.47;;
13685;SDS011;6915;48.296;8.874;2023-03-23T00:16:18;2.90;;;2.60;;
13685;SDS011;6915;48.296;8.874;2023-03-23T00:18:56;3.70;;;2.37;;
13685;SDS011;6915;48.296;8.874;2023-03-23T00:21:28;3.77;;;2.30;;
13685;SDS011;6915;48.296;8.874;2023-03-23T00:24:01;3.20;;;2.40;;
13685;SDS011;6915;48.296;8.874;2023-03-23T00:26:32;3.30;;;2.30;;
13685;SDS011;6915;48.296;8.874;2023-03-23T00:29:05;4.93;;;2.80;;
13685;SDS011;6915;48.296;8.874;2023-03-23T00:31:40;4.13;;;3.13;;
13685;SDS011;6915;48.296;8.874;2023-03-23T00:34:12;4.97;;;2.70;;
13685;SDS011;6915;48.296;8.874;2023-03-23T00:36:44;3.60;;;2.63;;
13685;SDS011;6915;48.296;8.874;2023-03-23T00:39:14;3.73;;;2.70;;
13685;SDS011;6915;48.296;8.874;2023-03-23T00:41:43;2.97;;;2.67;;
13685;SDS011;6915;48.296;8.874;2023-03-23T00:44:13;3.27;;;2.00;;
13685;SDS011;6915;48.296;8.874;2023-03-23T00:46:43;1.60;;;1.50;;
13685;SDS011;6915;48.296;8.874;2023-03-23T00:49:14;2.27;;;2.00;;
13685;SDS011;6915;48.296;8.874;2023-03-23T00:51:44;3.47;;;1.97;;
13685;SDS011;6915;48.296;8.874;2023-03-23T00:54:13;2.47;;;1.90;;
13685;SDS011;6915;48.296;8.874;2023-03-23T00:56:42;2.63;;;1.83;;
13685;SDS011;6915;48.296;8.874;2023-03-23T00:59:11;2.03;;;1.83;;
13685;SDS011;6915;48.296;8.874;2023-03-23T01:01:40;3.07;;;2.03;;
13685;SDS011;6915;48.296;8.874;2023-03-23T01:04:10;3.93;;;2.17;;
13685;SDS011;6915;48.296;8.874;2023-03-23T01:06:40;2.73;;;1.90;;
13685;SDS011;6915;48.296;8.874;2023-03-23T01:09:11;4.83;;;1.93;;
13685;SDS011;6915;48.296;8.874;2023-03-23T01:11:41;3.63;;;2.00;;
13685;SDS011;6915;48.296;8.874;2023-03-23T01:14:12;2.50;;;1.73;;
13685;SDS011;6915;48.296;8.874;2023-03-23T01:16:44;3.93;;;1.90;;
13685;SDS011;6915;48.296;8.874;2023-03-23T01:19:14;2.07;;;1.70;;
13685;SDS011;6915;48.296;8.874;2023-03-23T01:21:43;3.33;;;2.00;;
13685;SDS011;6915;48.296;8.874;2023-03-23T01:24:12;3.53;;;1.90;;
13685;SDS011;6915;48.296;8.874;2023-03-23T01:26:40;1.57;;;1.47;;
13685;SDS011;6915;48.296;8.874;2023-03-23T01:29:09;2.13;;;1.50;;
13685;SDS011;6915;48.296;8.874;2023-03-23T01:31:38;2.30;;;2.03;;
13685;SDS011;6915;48.296;8.874;2023-03-23T01:34:07;2.90;;;2.00;;
13685;SDS011;6915;48.296;8.874;2023-03-23T01:36:37;3.30;;;2.13;;
13685;SDS011;6915;48.296;8.874;2023-03-23T01:39:06;3.73;;;2.00;;
13685;SDS011;6915;48.296;8.874;2023-03-23T01:41:35;2.73;;;2.00;;
13685;SDS011;6915;48.296;8.874;2023-03-23T01:44:06;2.17;;;1.70;;
13685;SDS011;6915;48.296;8.874;2023-03-23T01:46:53;2.13;;;1.80;;
13685;SDS011;6915;48.296;8.874;2023-03-23T01:49:23;3.73;;;1.80;;
13685;SDS011;6915;48.296;8.874;2023-03-23T01:51:58;1.50;;;1.40;;
13685;SDS011;6915;48.296;8.874;2023-03-23T01:54:30;1.27;;;1.00;;
13685;SDS011;6915;48.296;8.874;2023-03-23T01:57:01;1.60;;;1.07;;
13685;SDS011;6915;48.296;8.874;2023-03-23T01:59:33;4.63;;;1.20;;
13685;SDS011;6915;48.296;8.874;2023-03-23T02:02:02;2.67;;;1.00;;
13685;SDS011;6915;48.296;8.874;2023-03-23T02:04:31;1.47;;;0.90;;
13685;SDS011;6915;48.296;8.874;2023-03-23T02:07:03;2.20;;;1.10;;
13685;SDS011;6915;48.296;8.874;2023-03-23T02:09:32;1.50;;;1.00;;
13685;SDS011;6915;48.296;8.874;2023-03-23T02:12:01;2.67;;;1.10;;
13685;SDS011;6915;48.296;8.874;2023-03-23T02:14:31;1.20;;;1.00;;
13685;SDS011;6915;48.296;8.874;2023-03-23T02:17:01;3.50;;;1.40;;
13685;SDS011;6915;48.296;8.874;2023-03-23T02:19:44;2.83;;;1.00;;
13685;SDS011;6915;48.296;8.874;2023-03-23T02:22:40;1.57;;;1.00;;
13685;SDS011;6915;48.296;8.874;2023-03-23T02:28:19;4.63;;;1.00;;
13685;SDS011;6915;48.296;8.874;2023-03-23T02:31:01;1.40;;;1.30;;
13685;SDS011;6915;48.296;8.874;2023-03-23T02:33:41;2.40;;;1.10;;
13685;SDS011;6915;48.296;8.874;2023-03-23T02:36:16;1.10;;;1.00;;
13685;SDS011;6915;48.296;8.874;2023-03-23T02:38:51;1.90;;;0.90;;
13685;SDS011;6915;48.296;8.874;2023-03-23T02:41:24;1.33;;;0.80;;
13685;SDS011;6915;48.296;8.874;2023-03-23T02:43:57;1.03;;;0.93;;
13685;SDS011;6915;48.296;8.874;2023-03-23T02:46:28;1.67;;;1.07;;
13685;SDS011;6915;48.296;8.874;2023-03-23T02:48:59;3.40;;;0.93;;
13685;SDS011;6915;48.296;8.874;2023-03-23T02:51:31;1.60;;;0.97;;
13685;SDS011;6915;48.296;8.874;2023-03-23T02:54:03;2.03;;;0.90;;
13685;SDS011;6915;48.296;8.874;2023-03-23T02:56:33;2.07;;;0.97;;
13685;SDS011;6915;48.296;8.874;2023-03-23T02:59:02;1.47;;;0.93;;
13685;SDS011;6915;48.296;8.874;2023-03-23T03:04:22;2.07;;;1.00;;
13685;SDS011;6915;48.296;8.874;2023-03-23T03:07:01;0.80;;;0.80;;
13685;SDS011;6915;48.296;8.874;2023-03-23T03:09:42;1.20;;;1.00;;
13685;SDS011;6915;48.296;8.874;2023-03-23T03:12:17;0.90;;;0.77;;
13685;SDS011;6915;48.296;8.874;2023-03-23T03:14:55;0.73;;;0.67;;
13685;SDS011;6915;48.296;8.874;2023-03-23T03:17:32;0.90;;;0.90;;
13685;SDS011;6915;48.296;8.874;2023-03-23T03:20:09;1.00;;;0.90;;
13685;SDS011;6915;48.296;8.874;2023-03-23T03:22:40;2.03;;;0.90;;
13685;SDS011;6915;48.296;8.874;2023-03-23T03:25:11;1.03;;;1.00;;
13685;SDS011;6915;48.296;8.874;2023-03-23T03:27:42;3.00;;;0.90;;
13685;SDS011;6915;48.296;8.874;2023-03-23T03:30:15;0.97;;;0.90;;
13685;SDS011;6915;48.296;8.874;2023-03-23T03:32:49;1.00;;;0.90;;
13685;SDS011;6915;48.296;8.874;2023-03-23T03:35:21;0.97;;;0.83;;
13685;SDS011;6915;48.296;8.874;2023-03-23T03:37:51;1.50;;;0.80;;
13685;SDS011;6915;48.296;8.874;2023-03-23T03:40:21;0.87;;;0.87;;
13685;SDS011;6915;48.296;8.874;2023-03-23T03:42:50;1.73;;;1.00;;
13685;SDS011;6915;48.296;8.874;2023-03-23T03:45:19;1.73;;;1.00;;
13685;SDS011;6915;48.296;8.874;2023-03-23T03:47:48;2.20;;;0.90;;
13685;SDS011;6915;48.296;8.874;2023-03-23T03:50:16;1.00;;;0.87;;
13685;SDS011;6915;48.296;8.874;2023-03-23T03:52:47;2.40;;;1.00;;
13685;SDS011;6915;48.296;8.874;2023-03-23T03:55:16;1.37;;;0.87;;
13685;SDS011;6915;48.296;8.874;2023-03-23T03:57:45;2.17;;;1.07;;
13685;SDS011;6915;48.296;8.874;2023-03-23T04:00:14;0.80;;;0.80;;
13685;SDS011;6915;48.296;8.874;2023-03-23T04:02:45;2.40;;;0.90;;
13685;SDS011;6915;48.296;8.874;2023-03-23T04:05:16;1.00;;;0.90;;
13685;SDS011;6915;48.296;8.874;2023-03-23T04:07:45;1.33;;;1.00;;
13685;SDS011;6915;48.296;8.874;2023-03-23T04:10:18;0.90;;;0.90;;
13685;SDS011;6915;48.296;8.874;2023-03-23T04:12:47;1.23;;;1.00;;
13685;SDS011;6915;48.296;8.874;2023-03-23T04:15:16;1.73;;;1.00;;
13685;SDS011;6915;48.296;8.874;2023-03-23T04:17:45;1.20;;;1.10;;
13685;SDS011;6915;48.296;8.874;2023-03-23T04:20:13;1.60;;;1.07;;
13685;SDS011;6915;48.296;8.874;2023-03-23T04:22:43;1.80;;;1.03;;
13685;SDS011;6915;48.296;8.874;2023-03-23T04:25:14;1.30;;;1.00;;
13685;SDS011;6915;48.296;8.874;2023-03-23T04:27:47;2.80;;;1.50;;
13685;SDS011;6915;48.296;8.874;2023-03-23T04:30:18;3.57;;;2.20;;
13685;SDS011;6915;48.296;8.874;2023-03-23T04:32:48;4.03;;;2.97;;
13685;SDS011;6915;48.296;8.874;2023-03-23T04:35:20;2.57;;;1.20;;
13685;SDS011;6915;48.296;8.874;2023-03-23T04:37:51;3.20;;;2.63;;
13685;SDS011;6915;48.296;8.874;2023-03-23T04:40:20;2.20;;;1.40;;
13685;SDS011;6915;48.296;8.874;2023-03-23T04:42:50;1.93;;;1.17;;
13685;SDS011;6915;48.296;8.874;2023-03-23T04:45:22;2.90;;;1.20;;
13685;SDS011;6915;48.296;8.874;2023-03-23T04:47:51;1.60;;;1.50;;
13685;SDS011;6915;48.296;8.874;2023-03-23T04:50:22;2.10;;;1.03;;
13685;SDS011;6915;48.296;8.874;2023-03-23T04:52:55;2.07;;;1.30;;
13685;SDS011;6915;48.296;8.874;2023-03-23T04:55:29;1.43;;;1.20;;
13685;SDS011;6915;48.296;8.874;2023-03-23T04:58:02;3.60;;;1.30;;
13685;SDS011;6915;48.296;8.874;2023-03-23T05:00:32;2.20;;;1.30;;
13685;SDS011;6915;48.296;8.874;2023-03-23T05:03:01;2.80;;;1.40;;
13685;SDS011;6915;48.296;8.874;2023-03-23T05:05:32;1.47;;;1.20;;
13685;SDS011;6915;48.296;8.874;2023-03-23T05:08:02;1.77;;;1.50;;
13685;SDS011;6915;48.296;8.874;2023-03-23T05:10:31;3.47;;;1.40;;
13685;SDS011;6915;48.296;8.874;2023-03-23T05:13:02;1.37;;;1.23;;
13685;SDS011;6915;48.296;8.874;2023-03-23T05:15:33;1.40;;;1.30;;
13685;SDS011;6915;48.296;8.874;2023-03-23T05:18:01;1.47;;;1.30;;
13685;SDS011;6915;48.296;8.874;2023-03-23T05:20:31;1.80;;;1.10;;
13685;SDS011;6915;48.296;8.874;2023-03-23T05:22:59;1.53;;;1.20;;
13685;SDS011;6915;48.296;8.874;2023-03-23T05:25:28;2.17;;;1.23;;
13685;SDS011;6915;48.296;8.874;2023-03-23T05:27:57;1.63;;;1.30;;
13685;SDS011;6915;48.296;8.874;2023-03-23T05:30:27;2.27;;;1.30;;
13685;SDS011;6915;48.296;8.874;2023-03-23T05:32:56;1.23;;;1.03;;
13685;SDS011;6915;48.296;8.874;2023-03-23T05:35:25;1.70;;;1.07;;
13685;SDS011;6915;48.296;8.874;2023-03-23T05:37:54;1.53;;;1.20;;
13685;SDS011;6915;48.296;8.874;2023-03-23T05:40:23;3.30;;;1.37;;
13685;SDS011;6915;48.296;8.874;2023-03-23T05:42:53;2.50;;;1.37;;
13685;SDS011;6915;48.296;8.874;2023-03-23T05:45:23;1.67;;;1.00;;
13685;SDS011;6915;48.296;8.874;2023-03-23T05:47:53;2.03;;;1.10;;
13685;SDS011;6915;48.296;8.874;2023-03-23T05:50:23;1.33;;;1.10;;
13685;SDS011;6915;48.296;8.874;2023-03-23T05:52:54;1.27;;;1.10;;
13685;SDS011;6915;48.296;8.874;2023-03-23T05:55:23;1.27;;;1.17;;
13685;SDS011;6915;48.296;8.874;2023-03-23T05:57:52;2.50;;;1.30;;
13685;SDS011;6915;48.296;8.874;2023-03-23T06:00:23;2.60;;;1.33;;
13685;SDS011;6915;48.296;8.874;2023-03-23T06:02:56;1.50;;;1.10;;
13685;SDS011;6915;48.296;8.874;2023-03-23T06:05:26;1.40;;;1.10;;
13685;SDS011;6915;48.296;8.874;2023-03-23T06:07:55;1.43;;;1.30;;
13685;SDS011;6915;48.296;8.874;2023-03-23T06:10:24;1.90;;;1.40;;
13685;SDS011;6915;48.296;8.874;2023-03-23T06:12:53;1.30;;;1.20;;
13685;SDS011;6915;48.296;8.874;2023-03-23T06:15:21;3.13;;;1.40;;
13685;SDS011;6915;48.296;8.874;2023-03-23T06:17:54;1.73;;;1.30;;
13685;SDS011;6915;48.296;8.874;2023-03-23T06:20:25;1.77;;;1.30;;
13685;SDS011;6915;48.296;8.874;2023-03-23T06:22:54;1.63;;;1.30;;
13685;SDS011;6915;48.296;8.874;2023-03-23T06:25:23;2.27;;;1.30;;
13685;SDS011;6915;48.296;8.874;2023-03-23T06:27:51;4.10;;;1.03;;
13685;SDS011;6915;48.296;8.874;2023-03-23T06:30:20;3.80;;;1.40;;
13685;SDS011;6915;48.296;8.874;2023-03-23T06:32:47;3.40;;;1.30;;
13685;SDS011;6915;48.296;8.874;2023-03-23T06:35:16;3.07;;;1.53;;
13685;SDS011;6915;48.296;8.874;2023-03-23T06:37:46;2.00;;;1.17;;
13685;SDS011;6915;48.296;8.874;2023-03-23T06:40:16;4.23;;;1.53;;
13685;SDS011;6915;48.296;8.874;2023-03-23T06:42:46;3.07;;;1.40;;
13685;SDS011;6915;48.296;8.874;2023-03-23T06:45:15;1.40;;;1.30;;
13685;SDS011;6915;48.296;8.874;2023-03-23T06:47:45;3.63;;;1.27;;
13685;SDS011;6915;48.296;8.874;2023-03-23T06:50:14;3.10;;;1.70;;
13685;SDS011;6915;48.296;8.874;2023-03-23T06:52:44;1.70;;;1.60;;
13685;SDS011;6915;48.296;8.874;2023-03-23T06:55:14;1.40;;;1.30;;
13685;SDS011;6915;48.296;8.874;2023-03-23T06:57:43;1.73;;;1.37;;
13685;SDS011;6915;48.296;8.874;2023-03-23T07:00:13;3.90;;;1.47;;
13685;SDS011;6915;48.296;8.874;2023-03-23T07:02:43;2.87;;;1.47;;
13685;SDS011;6915;48.296;8.874;2023-03-23T07:05:12;1.73;;;1.37;;
13685;SDS011;6915;48.296;8.874;2023-03-23T07:07:41;1.67;;;1.47;;
13685;SDS011;6915;48.296;8.874;2023-03-23T07:10:30;2.03;;;1.50;;
13685;SDS011;6915;48.296;8.874;2023-03-23T07:12:59;1.80;;;1.40;;
13685;SDS011;6915;48.296;8.874;2023-03-23T07:15:29;1.53;;;1.37;;
13685;SDS011;6915;48.296;8.874;2023-03-23T07:17:58;3.80;;;1.60;;
13685;SDS011;6915;48.296;8.874;2023-03-23T07:20:26;2.90;;;1.40;;
13685;SDS011;6915;48.296;8.874;2023-03-23T07:22:55;2.93;;;1.50;;
13685;SDS011;6915;48.296;8.874;2023-03-23T07:25:26;2.70;;;1.60;;
13685;SDS011;6915;48.296;8.874;2023-03-23T07:27:57;1.60;;;1.37;;
13685;SDS011;6915;48.296;8.874;2023-03-23T07:33:03;1.60;;;1.50;;
13685;SDS011;6915;48.296;8.874;2023-03-23T07:35:34;2.13;;;1.63;;
13685;SDS011;6915;48.296;8.874;2023-03-23T07:38:07;3.47;;;1.63;;
13685;SDS011;6915;48.296;8.874;2023-03-23T07:40:36;2.30;;;1.40;;
13685;SDS011;6915;48.296;8.874;2023-03-23T07:43:07;1.40;;;1.30;;
13685;SDS011;6915;48.296;8.874;2023-03-23T07:45:36;3.17;;;1.80;;
13685;SDS011;6915;48.296;8.874;2023-03-23T07:48:06;1.80;;;1.30;;
13685;SDS011;6915;48.296;8.874;2023-03-23T07:50:35;3.30;;;1.80;;
13685;SDS011;6915;48.296;8.874;2023-03-23T07:53:05;1.60;;;1.50;;
13685;SDS011;6915;48.296;8.874;2023-03-23T07:55:34;1.57;;;1.47;;
13685;SDS011;6915;48.296;8.874;2023-03-23T07:58:04;2.47;;;1.40;;
13685;SDS011;6915;48.296;8.874;2023-03-23T08:00:35;2.20;;;1.67;;
13685;SDS011;6915;48.296;8.874;2023-03-23T08:03:05;3.43;;;1.70;;
13685;SDS011;6915;48.296;8.874;2023-03-23T08:05:34;3.33;;;1.80;;
13685;SDS011;6915;48.296;8.874;2023-03-23T08:08:05;2.47;;;1.60;;
13685;SDS011;6915;48.296;8.874;2023-03-23T08:10:35;2.80;;;1.53;;
13685;SDS011;6915;48.296;8.874;2023-03-23T08:13:04;2.90;;;1.50;;
13685;SDS011;6915;48.296;8.874;2023-03-23T08:15:38;1.60;;;1.30;;
13685;SDS011;6915;48.296;8.874;2023-03-23T08:18:07;2.87;;;1.30;;
13685;SDS011;6915;48.296;8.874;2023-03-23T08:20:36;3.27;;;1.70;;
13685;SDS011;6915;48.296;8.874;2023-03-23T08:23:06;2.27;;;1.70;;
13685;SDS011;6915;48.296;8.874;2023-03-23T08:25:35;1.50;;;1.40;;
13685;SDS011;6915;48.296;8.874;2023-03-23T08:28:04;1.50;;;1.40;;
13685;SDS011;6915;48.296;8.874;2023-03-23T08:30:35;2.20;;;1.60;;
13685;SDS011;6915;48.296;8.874;2023-03-23T08:33:07;2.23;;;1.60;;
13685;SDS011;6915;48.296;8.874;2023-03-23T08:35:37;1.13;;;1.03;;
13685;SDS011;6915;48.296;8.874;2023-03-23T08:38:08;1.60;;;1.50;;
13685;SDS011;6915;48.296;8.874;2023-03-23T08:40:36;2.17;;;1.33;;
13685;SDS011;6915;48.296;8.874;2023-03-23T08:43:05;1.47;;;1.30;;
13685;SDS011;6915;48.296;8.874;2023-03-23T08:45:35;1.27;;;1.17;;
13685;SDS011;6915;48.296;8.874;2023-03-23T08:48:04;1.47;;;1.10;;
13685;SDS011;6915;48.296;8.874;2023-03-23T08:50:36;1.17;;;1.07;;
13685;SDS011;6915;48.296;8.874;2023-03-23T08:53:05;2.63;;;1.27;;
13685;SDS011;6915;48.296;8.874;2023-03-23T08:55:33;1.47;;;1.30;;
13685;SDS011;6915;48.296;8.874;2023-03-23T08:58:02;2.57;;;1.60;;
13685;SDS011;6915;48.296;8.874;2023-03-23T09:00:31;1.57;;;1.40;;
13685;SDS011;6915;48.296;8.874;2023-03-23T09:03:01;1.90;;;1.40;;
13685;SDS011;6915;48.296;8.874;2023-03-23T09:05:30;1.47;;;1.30;;
13685;SDS011;6915;48.296;8.874;2023-03-23T09:08:01;2.07;;;1.30;;
13685;SDS011;6915;48.296;8.874;2023-03-23T09:10:30;1.40;;;1.30;;
13685;SDS011;6915;48.296;8.874;2023-03-23T09:12:59;1.77;;;1.30;;
13685;SDS011;6915;48.296;8.874;2023-03-23T09:15:27;1.63;;;1.03;;
13685;SDS011;6915;48.296;8.874;2023-03-23T09:17:57;1.60;;;1.20;;
13685;SDS011;6915;48.296;8.874;2023-03-23T09:20:28;2.20;;;1.30;;
13685;SDS011;6915;48.296;8.874;2023-03-23T09:22:58;1.20;;;1.10;;
13685;SDS011;6915;48.296;8.874;2023-03-23T09:25:27;1.50;;;1.10;;
13685;SDS011;6915;48.296;8.874;2023-03-23T09:27:57;3.37;;;1.10;;
13685;SDS011;6915;48.296;8.874;2023-03-23T09:30:27;2.93;;;1.30;;
13685;SDS011;6915;48.296;8.874;2023-03-23T09:32:59;1.53;;;1.03;;
13685;SDS011;6915;48.296;8.874;2023-03-23T09:35:30;1.53;;;1.20;;
13685;SDS011;6915;48.296;8.874;2023-03-23T09:38:02;2.23;;;1.20;;
13685;SDS011;6915;48.296;8.874;2023-03-23T09:40:35;0.93;;;0.83;;
13685;SDS011;6915;48.296;8.874;2023-03-23T09:43:16;2.17;;;1.00;;
13685;SDS011;6915;48.296;8.874;2023-03-23T09:45:55;1.40;;;1.20;;
13685;SDS011;6915;48.296;8.874;2023-03-23T09:48:36;1.27;;;1.00;;
13685;SDS011;6915;48.296;8.874;2023-03-23T09:51:14;1.10;;;1.00;;
13685;SDS011;6915;48.296;8.874;2023-03-23T09:53:52;2.83;;;1.40;;
13685;SDS011;6915;48.296;8.874;2023-03-23T09:56:24;1.10;;;1.10;;
13685;SDS011;6915;48.296;8.874;2023-03-23T09:58:58;1.87;;;1.37;;
13685;SDS011;6915;48.296;8.874;2023-03-23T10:01:31;2.10;;;1.20;;
13685;SDS011;6915;48.296;8.874;2023-03-23T10:04:03;1.73;;;1.13;;
13685;SDS011;6915;48.296;8.874;2023-03-23T10:06:39;2.10;;;1.10;;
13685;SDS011;6915;48.296;8.874;2023-03-23T10:09:12;2.97;;;1.10;;
13685;SDS011;6915;48.296;8.874;2023-03-23T10:11:47;1.07;;;0.90;;
13685;SDS011;6915;48.296;8.874;2023-03-23T10:14:26;1.37;;;1.23;;
13685;SDS011;6915;48.296;8.874;2023-03-23T10:17:02;4.23;;;1.47;;
13685;SDS011;6915;48.296;8.874;2023-03-23T10:19:39;1.30;;;1.20;;
13685;SDS011;6915;48.296;8.874;2023-03-23T10:22:16;1.70;;;1.10;;
13685;SDS011;6915;48.296;8.874;2023-03-23T10:24:49;3.03;;;1.30;;
13685;SDS011;6915;48.296;8.874;2023-03-23T10:27:26;1.40;;;1.17;;
13685;SDS011;6915;48.296;8.874;2023-03-23T10:30:00;1.40;;;1.30;;
13685;SDS011;6915;48.296;8.874;2023-03-23T10:32:41;1.43;;;1.17;;
13685;SDS011;6915;48.296;8.874;2023-03-23T10:35:16;2.33;;;1.47;;
13685;SDS011;6915;48.296;8.874;2023-03-23T10:37:52;1.93;;;1.33;;
13685;SDS011;6915;48.296;8.874;2023-03-23T10:40:28;2.50;;;1.20;;
13685;SDS011;6915;48.296;8.874;2023-03-23T10:43:00;1.30;;;1.20;;
13685;SDS011;6915;48.296;8.874;2023-03-23T10:45:30;2.07;;;1.27;;
13685;SDS011;6915;48.296;8.874;2023-03-23T10:48:02;2.47;;;1.53;;
13685;SDS011;6915;48.296;8.874;2023-03-23T10:50:34;1.50;;;0.90;;
13685;SDS011;6915;48.296;8.874;2023-03-23T10:53:10;1.33;;;1.20;;
13685;SDS011;6915;48.296;8.874;2023-03-23T10:55:42;2.30;;;1.17;;
13685;SDS011;6915;48.296;8.874;2023-03-23T10:58:13;1.07;;;0.97;;
13685;SDS011;6915;48.296;8.874;2023-03-23T11:00:53;1.23;;;1.10;;
13685;SDS011;6915;48.296;8.874;2023-03-23T11:03:25;1.67;;;0.90;;
13685;SDS011;6915;48.296;8.874;2023-03-23T11:06:06;1.57;;;1.10;;
13685;SDS011;6915;48.296;8.874;2023-03-23T11:08:47;2.57;;;0.93;;
13685;SDS011;6915;48.296;8.874;2023-03-23T11:11:19;1.27;;;1.17;;
13685;SDS011;6915;48.296;8.874;2023-03-23T11:13:56;1.33;;;1.20;;
13685;SDS011;6915;48.296;8.874;2023-03-23T11:16:27;1.40;;;1.20;;
13685;SDS011;6915;48.296;8.874;2023-03-23T11:18:57;1.33;;;1.20;;
13685;SDS011;6915;48.296;8.874;2023-03-23T11:21:38;2.77;;;1.20;;
13685;SDS011;6915;48.296;8.874;2023-03-23T11:24:14;1.73;;;1.20;;
13685;SDS011;6915;48.296;8.874;2023-03-23T11:26:43;2.23;;;1.30;;
13685;SDS011;6915;48.296;8.874;2023-03-23T11:29:13;1.30;;;1.20;;
13685;SDS011;6915;48.296;8.874;2023-03-23T11:31:44;1.30;;;1.20;;
13685;SDS011;6915;48.296;8.874;2023-03-23T11:34:16;2.30;;;1.20;;
13685;SDS011;6915;48.296;8.874;2023-03-23T11:36:47;1.27;;;1.17;;
13685;SDS011;6915;48.296;8.874;2023-03-23T11:39:22;1.23;;;1.13;;
13685;SDS011;6915;48.296;8.874;2023-03-23T11:41:52;1.67;;;1.40;;
13685;SDS011;6915;48.296;8.874;2023-03-23T11:44:23;2.60;;;1.30;;
13685;SDS011;6915;48.296;8.874;2023-03-23T11:47:00;1.33;;;1.23;;
13685;SDS011;6915;48.296;8.874;2023-03-23T11:49:39;1.97;;;1.43;;
13685;SDS011;6915;48.296;8.874;2023-03-23T11:52:13;1.73;;;1.30;;
13685;SDS011;6915;48.296;8.874;2023-03-23T11:54:48;2.15;;;1.38;;
13685;SDS011;6915;48.296;8.874;2023-03-23T11:57:22;2.67;;;1.20;;
13685;SDS011;6915;48.296;8.874;2023-03-23T11:59:53;4.40;;;1.30;;
13685;SDS011;6915;48.296;8.874;2023-03-23T12:02:37;1.52;;;1.30;;
13685;SDS011;6915;48.296;8.874;2023-03-23T12:05:32;2.03;;;1.40;;
13685;SDS011;6915;48.296;8.874;2023-03-23T12:08:13;1.88;;;1.45;;
13685;SDS011;6915;48.296;8.874;2023-03-23T12:10:53;1.55;;;1.33;;
13685;SDS011;6915;48.296;8.874;2023-03-23T12:13:30;1.23;;;1.13;;
13685;SDS011;6915;48.296;8.874;2023-03-23T12:16:17;2.80;;;1.60;;
13685;SDS011;6915;48.296;8.874;2023-03-23T12:18:54;1.67;;;1.37;;
13685;SDS011;6915;48.296;8.874;2023-03-23T12:21:28;2.35;;;1.40;;
13685;SDS011;6915;48.296;8.874;2023-03-23T12:24:11;1.35;;;1.25;;
13685;SDS011;6915;48.296;8.874;2023-03-23T12:26:49;1.75;;;1.23;;
13685;SDS011;6915;48.296;8.874;2023-03-23T12:29:27;1.73;;;1.30;;
13685;SDS011;6915;48.296;8.874;2023-03-23T12:32:35;2.70;;;1.63;;
13685;SDS011;6915;48.296;8.874;2023-03-23T12:35:14;1.52;;;1.13;;
13685;SDS011;6915;48.296;8.874;2023-03-23T12:38:05;1.08;;;0.98;;
13685;SDS011;6915;48.296;8.874;2023-03-23T12:40:53;1.33;;;1.13;;
13685;SDS011;6915;48.296;8.874;2023-03-23T12:43:33;2.70;;;1.30;;
13685;SDS011;6915;48.296;8.874;2023-03-23T12:46:14;1.30;;;1.17;;
13685;SDS011;6915;48.296;8.874;2023-03-23T12:49:00;1.30;;;1.20;;
13685;SDS011;6915;48.296;8.874;2023-03-23T12:51:37;1.20;;;1.10;;
13685;SDS011;6915;48.296;8.874;2023-03-23T12:54:10;2.03;;;1.42;;
13685;SDS011;6915;48.296;8.874;2023-03-23T12:56:43;1.88;;;1.35;;
13685;SDS011;6915;48.296;8.874;2023-03-23T12:59:22;2.00;;;1.37;;
13685;SDS011;6915;48.296;8.874;2023-03-23T13:01:56;1.33;;;1.20;;
13685;SDS011;6915;48.296;8.874;2023-03-23T13:04:29;1.90;;;1.23;;
13685;SDS011;6915;48.296;8.874;2023-03-23T13:06:59;1.15;;;1.05;;
13685;SDS011;6915;48.296;8.874;2023-03-23T13:09:32;1.35;;;1.15;;
13685;SDS011;6915;48.296;8.874;2023-03-23T13:12:04;2.30;;;1.10;;
13685;SDS011;6915;48.296;8.874;2023-03-23T13:14:40;3.40;;;1.47;;
13685;SDS011;6915;48.296;8.874;2023-03-23T13:17:18;2.33;;;1.30;;
13685;SDS011;6915;48.296;8.874;2023-03-23T13:22:49;2.37;;;1.40;;
13685;SDS011;6915;48.296;8.874;2023-03-23T13:25:25;1.57;;;1.30;;
13685;SDS011;6915;48.296;8.874;2023-03-23T13:28:05;1.50;;;1.40;;
13685;SDS011;6915;48.296;8.874;2023-03-23T13:33:15;1.50;;;1.40;;
13685;SDS011;6915;48.296;8.874;2023-03-23T13:35:44;1.73;;;1.50;;
13685;SDS011;6915;48.296;8.874;2023-03-23T13:38:18;2.27;;;1.60;;
13685;SDS011;6915;48.296;8.874;2023-03-23T13:40:50;2.27;;;1.53;;
13685;SDS011;6915;48.296;8.874;2023-03-23T13:43:27;1.87;;;1.50;;
13685;SDS011;6915;48.296;8.874;2023-03-23T13:46:06;2.07;;;1.70;;
13685;SDS011;6915;48.296;8.874;2023-03-23T13:48:42;2.50;;;1.80;;
13685;SDS011;6915;48.296;8.874;2023-03-23T13:51:23;2.30;;;1.60;;
13685;SDS011;6915;48.296;8.874;2023-03-23T13:54:04;3.00;;;1.67;;
13685;SDS011;6915;48.296;8.874;2023-03-23T13:56:35;2.10;;;1.70;;
13685;SDS011;6915;48.296;8.874;2023-03-23T13:59:07;1.70;;;1.40;;
13685;SDS011;6915;48.296;8.874;2023-03-23T14:01:40;1.70;;;1.60;;
13685;SDS011;6915;48.296;8.874;2023-03-23T14:04:13;3.27;;;2.03;;
13685;SDS011;6915;48.296;8.874;2023-03-23T14:06:43;2.50;;;1.60;;
13685;SDS011;6915;48.296;8.874;2023-03-23T14:09:15;1.50;;;1.40;;
13685;SDS011;6915;48.296;8.874;2023-03-23T14:11:48;3.60;;;1.67;;
13685;SDS011;6915;48.296;8.874;2023-03-23T14:14:20;3.90;;;1.40;;
13685;SDS011;6915;48.296;8.874;2023-03-23T14:16:52;2.13;;;1.60;;
13685;SDS011;6915;48.296;8.874;2023-03-23T14:19:33;1.60;;;1.40;;
13685;SDS011;6915;48.296;8.874;2023-03-23T14:22:04;2.37;;;1.60;;
13685;SDS011;6915;48.296;8.874;2023-03-23T14:24:43;2.80;;;1.40;;
13685;SDS011;6915;48.296;8.874;2023-03-23T14:27:15;1.30;;;1.20;;
13685;SDS011;6915;48.296;8.874;2023-03-23T14:29:46;1.93;;;1.37;;
13685;SDS011;6915;48.296;8.874;2023-03-23T14:32:27;3.40;;;1.83;;
13685;SDS011;6915;48.296;8.874;2023-03-23T14:34:59;2.33;;;1.60;;
13685;SDS011;6915;48.296;8.874;2023-03-23T14:37:31;5.27;;;1.90;;
13685;SDS011;6915;48.296;8.874;2023-03-23T14:40:01;2.33;;;1.67;;
13685;SDS011;6915;48.296;8.874;2023-03-23T14:42:31;2.77;;;1.40;;
13685;SDS011;6915;48.296;8.874;2023-03-23T14:45:03;3.73;;;1.80;;
13685;SDS011;6915;48.296;8.874;2023-03-23T14:47:42;2.73;;;1.70;;
13685;SDS011;6915;48.296;8.874;2023-03-23T14:50:26;2.13;;;1.93;;
13685;SDS011;6915;48.296;8.874;2023-03-23T14:53:01;3.43;;;1.40;;
13685;SDS011;6915;48.296;8.874;2023-03-23T14:55:41;4.30;;;1.60;;
13685;SDS011;6915;48.296;8.874;2023-03-23T14:58:13;1.83;;;1.30;;
13685;SDS011;6915;48.296;8.874;2023-03-23T15:00:48;3.17;;;1.60;;
13685;SDS011;6915;48.296;8.874;2023-03-23T15:03:21;2.27;;;1.40;;
13685;SDS011;6915;48.296;8.874;2023-03-23T15:05:54;2.27;;;1.33;;
13685;SDS011;6915;48.296;8.874;2023-03-23T15:08:24;3.90;;;1.73;;
13685;SDS011;6915;48.296;8.874;2023-03-23T15:11:12;2.33;;;1.53;;
13685;SDS011;6915;48.296;8.874;2023-03-23T15:13:48;2.17;;;1.47;;
13685;SDS011;6915;48.296;8.874;2023-03-23T15:16:20;1.60;;;1.50;;
13685;SDS011;6915;48.296;8.874;2023-03-23T15:18:53;2.20;;;1.63;;
13685;SDS011;6915;48.296;8.874;2023-03-23T15:21:26;1.80;;;1.63;;
13685;SDS011;6915;48.296;8.874;2023-03-23T15:23:57;1.93;;;1.80;;
13685;SDS011;6915;48.296;8.874;2023-03-23T15:26:31;2.03;;;1.50;;
13685;SDS011;6915;48.296;8.874;2023-03-23T15:29:11;5.07;;;1.70;;
13685;SDS011;6915;48.296;8.874;2023-03-23T15:31:42;1.93;;;1.73;;
13685;SDS011;6915;48.296;8.874;2023-03-23T15:34:16;5.90;;;1.80;;
13685;SDS011;6915;48.296;8.874;2023-03-23T15:36:52;2.07;;;1.80;;
13685;SDS011;6915;48.296;8.874;2023-03-23T15:39:24;4.93;;;2.10;;
13685;SDS011;6915;48.296;8.874;2023-03-23T15:41:59;2.33;;;1.67;;
13685;SDS011;6915;48.296;8.874;2023-03-23T15:44:33;1.90;;;1.70;;
13685;SDS011;6915;48.296;8.874;2023-03-23T15:47:04;2.10;;;1.73;;